sensor_id;sensor_type;location;lat;lon;timestamp;temperature;humidity
22450;DHT22;11392;57.390;-2.468;2023-02-15T00:02:02;7.80;99.90
22450;DHT22;11392;57.390;-2.468;2023-02-15T00:04:29;7.80;99.90
22450;DHT22;11392;57.390;-2.468;2023-02-15T00:07:18;7.80;99.90
22450;DHT22;11392;57.390;-2.468;2023-02-15T00:09:46;7.80;99.90
22450;DHT22;11392;57.390;-2.468;2023-02-15T00:12:14;7.80;99.90
22450;DHT22;11392;57.390;-2.468;2023-02-15T00:20:16;7.80;99.90
22450;DHT22;11392;57.390;-2.468;2023-02-15T00:22:45;7.90;99.90
22450;DHT22;11392;57.390;-2.468;2023-02-15T00:25:11;8.00;99.90
22450;DHT22;11392;57.390;-2.468;2023-02-15T00:27:39;8.10;99.90
22450;DHT22;11392;57.390;-2.468;2023-02-15T00:30:06;8.30;99.90
22450;DHT22;11392;57.390;-2.468;2023-02-15T00:32:33;8.40;99.90
22450;DHT22;11392;57.390;-2.468;2023-02-15T00:35:00;8.50;99.90
22450;DHT22;11392;57.390;-2.468;2023-02-15T00:37:27;8.70;99.90
22450;DHT22;11392;57.390;-2.468;2023-02-15T00:39:54;8.80;99.90
22450;DHT22;11392;57.390;-2.468;2023-02-15T00:42:21;8.90;99.90
22450;DHT22;11392;57.390;-2.468;2023-02-15T00:44:48;9.00;99.90
22450;DHT22;11392;57.390;-2.468;2023-02-15T00:47:15;9.00;99.90
22450;DHT22;11392;57.390;-2.468;2023-02-15T00:49:42;8.90;99.90
22450;DHT22;11392;57.390;-2.468;2023-02-15T00:52:09;8.90;99.90
22450;DHT22;11392;57.390;-2.468;2023-02-15T00:54:36;8.80;99.90
22450;DHT22;11392;57.390;-2.468;2023-02-15T00:57:05;8.50;99.90
22450;DHT22;11392;57.390;-2.468;2023-02-15T00:59:32;8.40;99.90
22450;DHT22;11392;57.390;-2.468;2023-02-15T01:01:59;8.40;99.90
22450;DHT22;11392;57.390;-2.468;2023-02-15T01:04:26;8.20;99.90
22450;DHT22;11392;57.390;-2.468;2023-02-15T01:06:53;8.10;99.90
22450;DHT22;11392;57.390;-2.468;2023-02-15T01:09:20;8.10;99.90
22450;DHT22;11392;57.390;-2.468;2023-02-15T01:11:47;8.10;99.90
22450;DHT22;11392;57.390;-2.468;2023-02-15T01:14:14;8.00;99.90
22450;DHT22;11392;57.390;-2.468;2023-02-15T01:16:41;8.00;99.90
22450;DHT22;11392;57.390;-2.468;2023-02-15T01:19:08;7.90;99.90
22450;DHT22;11392;57.390;-2.468;2023-02-15T01:21:35;7.80;99.90
22450;DHT22;11392;57.390;-2.468;2023-02-15T01:24:02;7.70;99.90
22450;DHT22;11392;57.390;-2.468;2023-02-15T01:26:29;7.70;99.90
22450;DHT22;11392;57.390;-2.468;2023-02-15T01:28:56;7.70;99.90
22450;DHT22;11392;57.390;-2.468;2023-02-15T01:31:23;7.60;99.90
22450;DHT22;11392;57.390;-2.468;2023-02-15T01:33:50;7.70;99.90
22450;DHT22;11392;57.390;-2.468;2023-02-15T01:36:17;7.60;99.90
22450;DHT22;11392;57.390;-2.468;2023-02-15T01:38:44;7.60;99.90
22450;DHT22;11392;57.390;-2.468;2023-02-15T01:41:12;7.60;99.90
22450;DHT22;11392;57.390;-2.468;2023-02-15T01:43:55;7.60;99.90
22450;DHT22;11392;57.390;-2.468;2023-02-15T01:46:30;7.50;99.90
22450;DHT22;11392;57.390;-2.468;2023-02-15T01:49:05;7.50;99.90
22450;DHT22;11392;57.390;-2.468;2023-02-15T01:51:39;7.50;99.90
22450;DHT22;11392;57.390;-2.468;2023-02-15T01:54:17;7.50;99.90
22450;DHT22;11392;57.390;-2.468;2023-02-15T01:56:46;7.50;99.90
22450;DHT22;11392;57.390;-2.468;2023-02-15T01:59:19;7.50;99.90
22450;DHT22;11392;57.390;-2.468;2023-02-15T02:01:53;7.40;99.90
22450;DHT22;11392;57.390;-2.468;2023-02-15T02:04:35;7.40;99.90
22450;DHT22;11392;57.390;-2.468;2023-02-15T02:07:08;7.40;99.90
22450;DHT22;11392;57.390;-2.468;2023-02-15T02:09:36;7.40;99.90
22450;DHT22;11392;57.390;-2.468;2023-02-15T02:12:04;7.30;99.90
22450;DHT22;11392;57.390;-2.468;2023-02-15T02:14:31;7.30;99.90
22450;DHT22;11392;57.390;-2.468;2023-02-15T02:31:24;6.90;99.90
22450;DHT22;11392;57.390;-2.468;2023-02-15T02:36:59;6.80;99.90
22450;DHT22;11392;57.390;-2.468;2023-02-15T02:39:37;6.80;99.90
22450;DHT22;11392;57.390;-2.468;2023-02-15T02:42:31;6.80;99.90
22450;DHT22;11392;57.390;-2.468;2023-02-15T02:50:22;6.80;99.90
22450;DHT22;11392;57.390;-2.468;2023-02-15T02:52:52;6.70;99.90
22450;DHT22;11392;57.390;-2.468;2023-02-15T02:55:35;6.60;99.90
22450;DHT22;11392;57.390;-2.468;2023-02-15T02:58:30;6.80;99.90
22450;DHT22;11392;57.390;-2.468;2023-02-15T03:01:07;6.90;99.90
22450;DHT22;11392;57.390;-2.468;2023-02-15T03:03:45;7.00;99.90
22450;DHT22;11392;57.390;-2.468;2023-02-15T03:06:19;7.00;99.90
22450;DHT22;11392;57.390;-2.468;2023-02-15T03:08:53;7.00;99.90
22450;DHT22;11392;57.390;-2.468;2023-02-15T03:11:21;6.90;99.90
22450;DHT22;11392;57.390;-2.468;2023-02-15T03:13:49;6.90;99.90
22450;DHT22;11392;57.390;-2.468;2023-02-15T03:16:19;6.80;99.90
22450;DHT22;11392;57.390;-2.468;2023-02-15T03:19:16;6.70;99.90
22450;DHT22;11392;57.390;-2.468;2023-02-15T03:21:51;6.70;99.90
22450;DHT22;11392;57.390;-2.468;2023-02-15T03:24:44;6.60;99.90
22450;DHT22;11392;57.390;-2.468;2023-02-15T03:27:15;6.60;99.90
22450;DHT22;11392;57.390;-2.468;2023-02-15T03:29:50;6.50;99.90
22450;DHT22;11392;57.390;-2.468;2023-02-15T03:32:19;6.30;99.90
22450;DHT22;11392;57.390;-2.468;2023-02-15T03:34:46;6.30;99.90
22450;DHT22;11392;57.390;-2.468;2023-02-15T03:43:24;6.40;99.90
22450;DHT22;11392;57.390;-2.468;2023-02-15T03:45:57;6.60;99.90
22450;DHT22;11392;57.390;-2.468;2023-02-15T03:48:35;6.70;99.90
22450;DHT22;11392;57.390;-2.468;2023-02-15T03:51:08;6.80;99.90
22450;DHT22;11392;57.390;-2.468;2023-02-15T03:53:57;6.90;99.90
22450;DHT22;11392;57.390;-2.468;2023-02-15T03:56:25;7.00;99.90
22450;DHT22;11392;57.390;-2.468;2023-02-15T03:58:53;7.10;99.90
22450;DHT22;11392;57.390;-2.468;2023-02-15T04:04:38;7.00;99.90
22450;DHT22;11392;57.390;-2.468;2023-02-15T04:07:11;6.90;99.90
22450;DHT22;11392;57.390;-2.468;2023-02-15T04:09:39;6.90;99.90
22450;DHT22;11392;57.390;-2.468;2023-02-15T04:12:24;6.90;99.90
22450;DHT22;11392;57.390;-2.468;2023-02-15T04:14:51;6.90;99.90
22450;DHT22;11392;57.390;-2.468;2023-02-15T04:17:37;7.00;99.90
22450;DHT22;11392;57.390;-2.468;2023-02-15T04:20:05;6.90;99.90
22450;DHT22;11392;57.390;-2.468;2023-02-15T04:22:51;6.90;99.90
22450;DHT22;11392;57.390;-2.468;2023-02-15T04:25:38;6.90;99.90
22450;DHT22;11392;57.390;-2.468;2023-02-15T04:28:05;6.90;99.90
22450;DHT22;11392;57.390;-2.468;2023-02-15T04:30:34;6.90;99.90
22450;DHT22;11392;57.390;-2.468;2023-02-15T04:33:01;7.00;99.90
22450;DHT22;11392;57.390;-2.468;2023-02-15T04:35:28;7.00;99.90
22450;DHT22;11392;57.390;-2.468;2023-02-15T04:37:55;7.00;99.90
22450;DHT22;11392;57.390;-2.468;2023-02-15T04:40:22;7.00;99.90
22450;DHT22;11392;57.390;-2.468;2023-02-15T04:42:49;7.00;99.90
22450;DHT22;11392;57.390;-2.468;2023-02-15T04:45:16;7.00;99.90
22450;DHT22;11392;57.390;-2.468;2023-02-15T04:47:44;7.10;99.90
22450;DHT22;11392;57.390;-2.468;2023-02-15T04:50:11;7.10;99.90
22450;DHT22;11392;57.390;-2.468;2023-02-15T04:52:38;7.10;99.90
22450;DHT22;11392;57.390;-2.468;2023-02-15T04:55:06;7.20;99.90
22450;DHT22;11392;57.390;-2.468;2023-02-15T04:57:35;7.20;99.90
22450;DHT22;11392;57.390;-2.468;2023-02-15T05:00:03;7.10;99.90
22450;DHT22;11392;57.390;-2.468;2023-02-15T05:02:30;7.10;99.90
22450;DHT22;11392;57.390;-2.468;2023-02-15T05:04:57;7.10;99.90
22450;DHT22;11392;57.390;-2.468;2023-02-15T05:07:24;7.10;99.90
22450;DHT22;11392;57.390;-2.468;2023-02-15T05:09:51;7.10;99.90
22450;DHT22;11392;57.390;-2.468;2023-02-15T05:12:18;7.10;99.90
22450;DHT22;11392;57.390;-2.468;2023-02-15T05:14:45;7.00;99.90
22450;DHT22;11392;57.390;-2.468;2023-02-15T05:17:12;7.00;99.90
22450;DHT22;11392;57.390;-2.468;2023-02-15T05:19:38;7.00;99.90
22450;DHT22;11392;57.390;-2.468;2023-02-15T05:22:05;7.00;99.90
22450;DHT22;11392;57.390;-2.468;2023-02-15T05:24:32;6.90;99.90
22450;DHT22;11392;57.390;-2.468;2023-02-15T05:27:18;6.80;99.90
22450;DHT22;11392;57.390;-2.468;2023-02-15T05:30:04;6.70;99.90
22450;DHT22;11392;57.390;-2.468;2023-02-15T05:32:31;6.70;99.90
22450;DHT22;11392;57.390;-2.468;2023-02-15T05:34:58;6.70;99.90
22450;DHT22;11392;57.390;-2.468;2023-02-15T05:37:25;6.60;99.90
22450;DHT22;11392;57.390;-2.468;2023-02-15T05:39:52;6.60;99.90
22450;DHT22;11392;57.390;-2.468;2023-02-15T05:42:19;6.60;99.90
22450;DHT22;11392;57.390;-2.468;2023-02-15T05:44:46;6.50;99.90
22450;DHT22;11392;57.390;-2.468;2023-02-15T05:47:13;6.50;99.90
22450;DHT22;11392;57.390;-2.468;2023-02-15T05:49:40;6.40;99.90
22450;DHT22;11392;57.390;-2.468;2023-02-15T05:52:07;6.40;99.90
22450;DHT22;11392;57.390;-2.468;2023-02-15T05:54:34;6.30;99.90
22450;DHT22;11392;57.390;-2.468;2023-02-15T05:57:01;6.20;99.90
22450;DHT22;11392;57.390;-2.468;2023-02-15T05:59:28;6.10;99.90
22450;DHT22;11392;57.390;-2.468;2023-02-15T06:01:55;6.10;99.90
22450;DHT22;11392;57.390;-2.468;2023-02-15T06:04:22;6.00;99.90
22450;DHT22;11392;57.390;-2.468;2023-02-15T06:06:49;6.00;99.90
22450;DHT22;11392;57.390;-2.468;2023-02-15T06:09:16;6.00;99.90
22450;DHT22;11392;57.390;-2.468;2023-02-15T06:11:45;5.90;99.90
22450;DHT22;11392;57.390;-2.468;2023-02-15T06:14:17;6.00;99.90
22450;DHT22;11392;57.390;-2.468;2023-02-15T06:16:44;6.00;99.90
22450;DHT22;11392;57.390;-2.468;2023-02-15T06:19:11;6.10;99.90
22450;DHT22;11392;57.390;-2.468;2023-02-15T06:21:38;6.20;99.90
22450;DHT22;11392;57.390;-2.468;2023-02-15T06:24:05;6.10;99.90
22450;DHT22;11392;57.390;-2.468;2023-02-15T06:26:32;6.10;99.90
22450;DHT22;11392;57.390;-2.468;2023-02-15T06:28:59;6.10;99.90
22450;DHT22;11392;57.390;-2.468;2023-02-15T06:31:26;6.10;99.90
22450;DHT22;11392;57.390;-2.468;2023-02-15T06:33:54;6.10;99.90
22450;DHT22;11392;57.390;-2.468;2023-02-15T06:36:28;6.10;99.90
22450;DHT22;11392;57.390;-2.468;2023-02-15T06:38:55;6.10;99.90
22450;DHT22;11392;57.390;-2.468;2023-02-15T06:41:23;6.00;99.90
22450;DHT22;11392;57.390;-2.468;2023-02-15T06:43:50;6.00;99.90
22450;DHT22;11392;57.390;-2.468;2023-02-15T06:46:17;5.90;99.90
22450;DHT22;11392;57.390;-2.468;2023-02-15T06:48:44;5.90;99.90
22450;DHT22;11392;57.390;-2.468;2023-02-15T06:51:11;5.90;99.90
22450;DHT22;11392;57.390;-2.468;2023-02-15T06:53:38;5.80;99.90
22450;DHT22;11392;57.390;-2.468;2023-02-15T06:56:08;5.80;99.90
22450;DHT22;11392;57.390;-2.468;2023-02-15T06:58:36;5.80;99.90
22450;DHT22;11392;57.390;-2.468;2023-02-15T07:01:04;5.90;99.90
22450;DHT22;11392;57.390;-2.468;2023-02-15T07:03:32;5.80;99.90
22450;DHT22;11392;57.390;-2.468;2023-02-15T07:06:01;5.90;99.90
22450;DHT22;11392;57.390;-2.468;2023-02-15T07:08:29;5.80;99.90
22450;DHT22;11392;57.390;-2.468;2023-02-15T07:10:56;5.80;99.90
22450;DHT22;11392;57.390;-2.468;2023-02-15T07:13:43;5.80;99.90
22450;DHT22;11392;57.390;-2.468;2023-02-15T07:16:10;5.70;99.90
22450;DHT22;11392;57.390;-2.468;2023-02-15T07:18:38;5.60;99.90
22450;DHT22;11392;57.390;-2.468;2023-02-15T07:21:06;5.60;99.90
22450;DHT22;11392;57.390;-2.468;2023-02-15T07:23:38;5.60;99.90
22450;DHT22;11392;57.390;-2.468;2023-02-15T07:26:06;5.60;99.90
22450;DHT22;11392;57.390;-2.468;2023-02-15T07:28:34;5.60;99.90
22450;DHT22;11392;57.390;-2.468;2023-02-15T07:31:02;5.60;99.90
22450;DHT22;11392;57.390;-2.468;2023-02-15T07:33:33;5.60;99.90
22450;DHT22;11392;57.390;-2.468;2023-02-15T07:36:04;5.60;99.90
22450;DHT22;11392;57.390;-2.468;2023-02-15T07:38:34;5.60;99.90
22450;DHT22;11392;57.390;-2.468;2023-02-15T07:41:06;5.60;99.90
22450;DHT22;11392;57.390;-2.468;2023-02-15T07:43:35;5.50;99.90
22450;DHT22;11392;57.390;-2.468;2023-02-15T07:46:08;5.50;99.90
22450;DHT22;11392;57.390;-2.468;2023-02-15T07:48:36;5.50;99.90
22450;DHT22;11392;57.390;-2.468;2023-02-15T07:51:05;5.50;99.90
22450;DHT22;11392;57.390;-2.468;2023-02-15T07:53:35;5.50;99.90
22450;DHT22;11392;57.390;-2.468;2023-02-15T07:56:04;5.60;99.90
22450;DHT22;11392;57.390;-2.468;2023-02-15T07:58:33;5.60;99.90
22450;DHT22;11392;57.390;-2.468;2023-02-15T08:01:24;5.60;99.90
22450;DHT22;11392;57.390;-2.468;2023-02-15T08:03:54;5.70;99.90
22450;DHT22;11392;57.390;-2.468;2023-02-15T08:06:23;5.80;99.90
22450;DHT22;11392;57.390;-2.468;2023-02-15T08:08:50;6.00;99.90
22450;DHT22;11392;57.390;-2.468;2023-02-15T08:11:29;6.30;99.90
22450;DHT22;11392;57.390;-2.468;2023-02-15T08:14:11;6.50;99.90
22450;DHT22;11392;57.390;-2.468;2023-02-15T08:16:47;6.80;99.90
22450;DHT22;11392;57.390;-2.468;2023-02-15T08:19:18;7.00;99.90
22450;DHT22;11392;57.390;-2.468;2023-02-15T08:21:49;7.00;99.90
22450;DHT22;11392;57.390;-2.468;2023-02-15T08:24:18;7.10;99.90
22450;DHT22;11392;57.390;-2.468;2023-02-15T08:26:46;7.20;99.90
22450;DHT22;11392;57.390;-2.468;2023-02-15T08:29:15;7.30;99.90
22450;DHT22;11392;57.390;-2.468;2023-02-15T08:31:43;7.20;99.90
22450;DHT22;11392;57.390;-2.468;2023-02-15T08:34:13;6.90;99.90
22450;DHT22;11392;57.390;-2.468;2023-02-15T08:36:40;6.90;99.90
22450;DHT22;11392;57.390;-2.468;2023-02-15T08:39:08;7.10;99.90
22450;DHT22;11392;57.390;-2.468;2023-02-15T08:41:36;7.20;99.90
22450;DHT22;11392;57.390;-2.468;2023-02-15T08:44:06;7.10;99.90
22450;DHT22;11392;57.390;-2.468;2023-02-15T08:46:35;7.00;99.90
22450;DHT22;11392;57.390;-2.468;2023-02-15T08:49:03;7.00;99.90
22450;DHT22;11392;57.390;-2.468;2023-02-15T08:51:33;7.30;99.90
22450;DHT22;11392;57.390;-2.468;2023-02-15T08:54:03;7.30;99.90
22450;DHT22;11392;57.390;-2.468;2023-02-15T08:56:35;7.40;99.90
22450;DHT22;11392;57.390;-2.468;2023-02-15T08:59:03;7.40;99.90
22450;DHT22;11392;57.390;-2.468;2023-02-15T09:01:32;7.60;99.90
22450;DHT22;11392;57.390;-2.468;2023-02-15T09:04:03;7.60;99.90
22450;DHT22;11392;57.390;-2.468;2023-02-15T09:06:37;7.70;99.90
22450;DHT22;11392;57.390;-2.468;2023-02-15T09:09:04;7.80;99.90
22450;DHT22;11392;57.390;-2.468;2023-02-15T09:11:35;7.90;99.90
22450;DHT22;11392;57.390;-2.468;2023-02-15T09:14:12;7.80;99.90
22450;DHT22;11392;57.390;-2.468;2023-02-15T09:16:44;7.60;99.90
22450;DHT22;11392;57.390;-2.468;2023-02-15T09:19:16;7.60;99.90
22450;DHT22;11392;57.390;-2.468;2023-02-15T09:21:44;7.50;99.90
22450;DHT22;11392;57.390;-2.468;2023-02-15T09:24:14;7.50;99.90
22450;DHT22;11392;57.390;-2.468;2023-02-15T09:26:44;7.20;99.90
22450;DHT22;11392;57.390;-2.468;2023-02-15T09:29:13;7.00;99.90
22450;DHT22;11392;57.390;-2.468;2023-02-15T09:31:43;6.90;99.90
22450;DHT22;11392;57.390;-2.468;2023-02-15T09:34:16;6.90;99.90
22450;DHT22;11392;57.390;-2.468;2023-02-15T09:36:44;7.10;99.90
22450;DHT22;11392;57.390;-2.468;2023-02-15T09:39:25;7.40;99.90
22450;DHT22;11392;57.390;-2.468;2023-02-15T09:50:27;8.80;99.90
22450;DHT22;11392;57.390;-2.468;2023-02-15T09:56:06;8.50;99.90
22450;DHT22;11392;57.390;-2.468;2023-02-15T10:01:53;8.40;99.90
22450;DHT22;11392;57.390;-2.468;2023-02-15T10:04:43;8.30;99.90
22450;DHT22;11392;57.390;-2.468;2023-02-15T10:07:49;8.20;99.90
22450;DHT22;11392;57.390;-2.468;2023-02-15T10:10:27;8.20;99.90
22450;DHT22;11392;57.390;-2.468;2023-02-15T10:16:13;8.00;99.90
22450;DHT22;11392;57.390;-2.468;2023-02-15T10:26:22;8.20;99.90
22450;DHT22;11392;57.390;-2.468;2023-02-15T10:28:56;8.30;99.90
22450;DHT22;11392;57.390;-2.468;2023-02-15T10:31:27;8.40;99.90
22450;DHT22;11392;57.390;-2.468;2023-02-15T10:34:12;8.50;99.90
22450;DHT22;11392;57.390;-2.468;2023-02-15T10:46:02;9.00;99.90
22450;DHT22;11392;57.390;-2.468;2023-02-15T10:51:52;8.90;99.90
22450;DHT22;11392;57.390;-2.468;2023-02-15T10:57:30;8.70;99.90
22450;DHT22;11392;57.390;-2.468;2023-02-15T11:00:16;8.70;99.90
22450;DHT22;11392;57.390;-2.468;2023-02-15T11:05:51;8.60;99.90
22450;DHT22;11392;57.390;-2.468;2023-02-15T11:08:24;8.50;99.90
22450;DHT22;11392;57.390;-2.468;2023-02-15T11:10:57;8.30;99.90
22450;DHT22;11392;57.390;-2.468;2023-02-15T11:13:31;8.30;99.90
22450;DHT22;11392;57.390;-2.468;2023-02-15T11:16:12;8.30;99.90
22450;DHT22;11392;57.390;-2.468;2023-02-15T11:18:53;8.30;99.90
22450;DHT22;11392;57.390;-2.468;2023-02-15T11:21:31;8.30;99.90
22450;DHT22;11392;57.390;-2.468;2023-02-15T11:24:13;8.30;99.90
22450;DHT22;11392;57.390;-2.468;2023-02-15T11:31:46;8.30;99.90
22450;DHT22;11392;57.390;-2.468;2023-02-15T11:34:37;8.30;99.90
22450;DHT22;11392;57.390;-2.468;2023-02-15T11:37:11;8.30;99.90
22450;DHT22;11392;57.390;-2.468;2023-02-15T11:39:40;8.40;99.90
22450;DHT22;11392;57.390;-2.468;2023-02-15T11:42:12;8.40;99.90
22450;DHT22;11392;57.390;-2.468;2023-02-15T11:45:04;8.40;99.90
22450;DHT22;11392;57.390;-2.468;2023-02-15T11:47:37;8.50;99.90
22450;DHT22;11392;57.390;-2.468;2023-02-15T11:50:04;8.50;99.90
22450;DHT22;11392;57.390;-2.468;2023-02-15T11:52:32;8.50;99.90
22450;DHT22;11392;57.390;-2.468;2023-02-15T11:55:00;8.50;99.90
22450;DHT22;11392;57.390;-2.468;2023-02-15T11:57:37;8.50;99.90
22450;DHT22;11392;57.390;-2.468;2023-02-15T12:00:12;8.50;99.90
22450;DHT22;11392;57.390;-2.468;2023-02-15T12:02:45;8.50;99.90
22450;DHT22;11392;57.390;-2.468;2023-02-15T12:05:17;8.60;99.90
22450;DHT22;11392;57.390;-2.468;2023-02-15T12:08:00;8.60;99.90
22450;DHT22;11392;57.390;-2.468;2023-02-15T12:10:42;8.60;99.90
22450;DHT22;11392;57.390;-2.468;2023-02-15T12:13:17;8.70;99.90
22450;DHT22;11392;57.390;-2.468;2023-02-15T12:15:55;8.80;99.90
22450;DHT22;11392;57.390;-2.468;2023-02-15T12:18:42;8.80;99.90
22450;DHT22;11392;57.390;-2.468;2023-02-15T12:21:16;9.00;99.90
22450;DHT22;11392;57.390;-2.468;2023-02-15T12:23:55;9.20;99.90
22450;DHT22;11392;57.390;-2.468;2023-02-15T12:26:28;9.20;99.90
22450;DHT22;11392;57.390;-2.468;2023-02-15T12:28:59;9.40;99.90
22450;DHT22;11392;57.390;-2.468;2023-02-15T12:31:39;9.60;99.90
22450;DHT22;11392;57.390;-2.468;2023-02-15T12:34:21;9.80;99.90
22450;DHT22;11392;57.390;-2.468;2023-02-15T12:36:53;10.10;99.90
22450;DHT22;11392;57.390;-2.468;2023-02-15T12:39:29;10.90;99.90
22450;DHT22;11392;57.390;-2.468;2023-02-15T12:42:02;11.20;99.90
22450;DHT22;11392;57.390;-2.468;2023-02-15T12:44:34;11.60;99.90
22450;DHT22;11392;57.390;-2.468;2023-02-15T12:47:03;11.80;99.90
22450;DHT22;11392;57.390;-2.468;2023-02-15T12:49:36;12.20;99.90
22450;DHT22;11392;57.390;-2.468;2023-02-15T12:52:06;12.20;99.90
22450;DHT22;11392;57.390;-2.468;2023-02-15T12:54:49;12.50;99.90
22450;DHT22;11392;57.390;-2.468;2023-02-15T12:57:30;12.80;99.90
22450;DHT22;11392;57.390;-2.468;2023-02-15T13:08:08;13.30;99.90
22450;DHT22;11392;57.390;-2.468;2023-02-15T13:10:52;13.30;99.90
22450;DHT22;11392;57.390;-2.468;2023-02-15T13:13:24;13.00;99.90
22450;DHT22;11392;57.390;-2.468;2023-02-15T13:15:54;12.80;99.90
22450;DHT22;11392;57.390;-2.468;2023-02-15T13:18:45;12.70;99.90
22450;DHT22;11392;57.390;-2.468;2023-02-15T13:21:16;12.60;99.90
22450;DHT22;11392;57.390;-2.468;2023-02-15T13:23:51;12.30;99.90
22450;DHT22;11392;57.390;-2.468;2023-02-15T13:26:21;12.10;99.90
22450;DHT22;11392;57.390;-2.468;2023-02-15T13:28:53;12.10;99.90
22450;DHT22;11392;57.390;-2.468;2023-02-15T13:31:27;12.00;99.90
22450;DHT22;11392;57.390;-2.468;2023-02-15T13:34:34;11.90;99.90
22450;DHT22;11392;57.390;-2.468;2023-02-15T13:39:43;11.90;99.90
22450;DHT22;11392;57.390;-2.468;2023-02-15T13:52:51;11.30;99.90
22450;DHT22;11392;57.390;-2.468;2023-02-15T14:00:35;11.50;99.90
22450;DHT22;11392;57.390;-2.468;2023-02-15T14:14:35;11.20;99.90
22450;DHT22;11392;57.390;-2.468;2023-02-15T14:19:53;11.00;99.90
22450;DHT22;11392;57.390;-2.468;2023-02-15T14:22:44;11.00;99.90
22450;DHT22;11392;57.390;-2.468;2023-02-15T14:25:24;11.00;99.90
22450;DHT22;11392;57.390;-2.468;2023-02-15T14:28:15;11.00;99.90
22450;DHT22;11392;57.390;-2.468;2023-02-15T14:30:49;11.10;99.90
22450;DHT22;11392;57.390;-2.468;2023-02-15T14:33:28;10.90;99.90
22450;DHT22;11392;57.390;-2.468;2023-02-15T14:36:01;10.80;99.90
22450;DHT22;11392;57.390;-2.468;2023-02-15T14:42:02;10.70;99.90
22450;DHT22;11392;57.390;-2.468;2023-02-15T14:45:01;10.60;99.90
22450;DHT22;11392;57.390;-2.468;2023-02-15T14:47:40;10.50;99.90
22450;DHT22;11392;57.390;-2.468;2023-02-15T14:50:45;10.50;99.90
22450;DHT22;11392;57.390;-2.468;2023-02-15T14:56:19;10.20;99.90
22450;DHT22;11392;57.390;-2.468;2023-02-15T15:01:25;10.10;99.90
22450;DHT22;11392;57.390;-2.468;2023-02-15T15:03:57;10.00;99.90
22450;DHT22;11392;57.390;-2.468;2023-02-15T15:06:30;9.90;99.90
22450;DHT22;11392;57.390;-2.468;2023-02-15T15:11:50;9.80;99.90
22450;DHT22;11392;57.390;-2.468;2023-02-15T15:14:50;9.70;99.90
22450;DHT22;11392;57.390;-2.468;2023-02-15T15:23:38;9.50;99.90
22450;DHT22;11392;57.390;-2.468;2023-02-15T15:26:30;9.30;99.90
22450;DHT22;11392;57.390;-2.468;2023-02-15T15:29:01;9.30;99.90
22450;DHT22;11392;57.390;-2.468;2023-02-15T15:31:45;9.20;99.90
22450;DHT22;11392;57.390;-2.468;2023-02-15T15:34:35;9.20;99.90
22450;DHT22;11392;57.390;-2.468;2023-02-15T15:37:40;9.20;99.90
22450;DHT22;11392;57.390;-2.468;2023-02-15T15:42:54;9.00;99.90
22450;DHT22;11392;57.390;-2.468;2023-02-15T15:50:52;9.00;99.90
22450;DHT22;11392;57.390;-2.468;2023-02-15T15:53:23;9.00;99.90
22450;DHT22;11392;57.390;-2.468;2023-02-15T15:55:58;8.90;99.90
22450;DHT22;11392;57.390;-2.468;2023-02-15T15:58:27;8.90;99.90
22450;DHT22;11392;57.390;-2.468;2023-02-15T16:01:03;8.80;99.90
22450;DHT22;11392;57.390;-2.468;2023-02-15T16:03:31;8.70;99.90
22450;DHT22;11392;57.390;-2.468;2023-02-15T16:05:58;8.70;99.90
22450;DHT22;11392;57.390;-2.468;2023-02-15T16:08:37;8.60;99.90
22450;DHT22;11392;57.390;-2.468;2023-02-15T16:11:22;8.70;99.90
22450;DHT22;11392;57.390;-2.468;2023-02-15T16:13:51;8.70;99.90
22450;DHT22;11392;57.390;-2.468;2023-02-15T16:16:24;8.60;99.90
22450;DHT22;11392;57.390;-2.468;2023-02-15T16:18:57;8.60;99.90
22450;DHT22;11392;57.390;-2.468;2023-02-15T16:21:34;8.60;99.90
22450;DHT22;11392;57.390;-2.468;2023-02-15T16:29:33;8.60;99.90
22450;DHT22;11392;57.390;-2.468;2023-02-15T16:35:00;8.60;99.90
22450;DHT22;11392;57.390;-2.468;2023-02-15T16:37:32;8.50;99.90
22450;DHT22;11392;57.390;-2.468;2023-02-15T16:40:00;8.50;99.90
22450;DHT22;11392;57.390;-2.468;2023-02-15T16:42:27;8.40;99.90
22450;DHT22;11392;57.390;-2.468;2023-02-15T16:45:13;8.40;99.90
22450;DHT22;11392;57.390;-2.468;2023-02-15T16:47:46;8.30;99.90
22450;DHT22;11392;57.390;-2.468;2023-02-15T16:50:25;8.20;99.90
22450;DHT22;11392;57.390;-2.468;2023-02-15T16:52:59;8.20;99.90
22450;DHT22;11392;57.390;-2.468;2023-02-15T16:55:28;8.20;99.90
22450;DHT22;11392;57.390;-2.468;2023-02-15T16:58:02;8.20;99.90
22450;DHT22;11392;57.390;-2.468;2023-02-15T17:00:34;8.10;99.90
22450;DHT22;11392;57.390;-2.468;2023-02-15T17:05:44;8.00;99.90
22450;DHT22;11392;57.390;-2.468;2023-02-15T17:11:15;7.90;99.90
22450;DHT22;11392;57.390;-2.468;2023-02-15T17:16:41;7.80;99.90
22450;DHT22;11392;57.390;-2.468;2023-02-15T17:19:14;7.80;99.90
22450;DHT22;11392;57.390;-2.468;2023-02-15T17:22:21;7.80;99.90
22450;DHT22;11392;57.390;-2.468;2023-02-15T17:24:41;7.80;99.90
22450;DHT22;11392;57.390;-2.468;2023-02-15T17:27:17;7.90;99.90
22450;DHT22;11392;57.390;-2.468;2023-02-15T17:29:51;7.90;99.90
22450;DHT22;11392;57.390;-2.468;2023-02-15T17:32:22;7.80;99.90
22450;DHT22;11392;57.390;-2.468;2023-02-15T17:35:06;7.70;99.90
22450;DHT22;11392;57.390;-2.468;2023-02-15T17:40:24;7.60;99.90
22450;DHT22;11392;57.390;-2.468;2023-02-15T17:42:52;7.50;99.90
22450;DHT22;11392;57.390;-2.468;2023-02-15T17:45:20;7.40;99.90
22450;DHT22;11392;57.390;-2.468;2023-02-15T17:47:48;7.40;99.90
22450;DHT22;11392;57.390;-2.468;2023-02-15T17:50:21;7.40;99.90
22450;DHT22;11392;57.390;-2.468;2023-02-15T17:52:50;7.40;99.90
22450;DHT22;11392;57.390;-2.468;2023-02-15T17:55:20;7.40;99.90
22450;DHT22;11392;57.390;-2.468;2023-02-15T17:58:09;7.30;99.90
22450;DHT22;11392;57.390;-2.468;2023-02-15T18:00:41;7.20;99.90
22450;DHT22;11392;57.390;-2.468;2023-02-15T18:03:40;7.30;99.90
22450;DHT22;11392;57.390;-2.468;2023-02-15T18:06:26;7.20;99.90
22450;DHT22;11392;57.390;-2.468;2023-02-15T18:09:18;7.20;99.90
22450;DHT22;11392;57.390;-2.468;2023-02-15T18:12:23;7.20;99.90
22450;DHT22;11392;57.390;-2.468;2023-02-15T18:14:51;7.10;99.90
22450;DHT22;11392;57.390;-2.468;2023-02-15T18:17:27;7.00;99.90
22450;DHT22;11392;57.390;-2.468;2023-02-15T18:19:55;7.00;99.90
22450;DHT22;11392;57.390;-2.468;2023-02-15T18:22:22;6.90;99.90
22450;DHT22;11392;57.390;-2.468;2023-02-15T18:24:49;6.90;99.90
22450;DHT22;11392;57.390;-2.468;2023-02-15T18:27:16;6.90;99.90
22450;DHT22;11392;57.390;-2.468;2023-02-15T18:29:43;6.80;99.90
22450;DHT22;11392;57.390;-2.468;2023-02-15T18:32:15;6.80;99.90
22450;DHT22;11392;57.390;-2.468;2023-02-15T18:34:44;6.80;99.90
22450;DHT22;11392;57.390;-2.468;2023-02-15T18:37:18;6.80;99.90
22450;DHT22;11392;57.390;-2.468;2023-02-15T18:39:50;6.80;99.90
22450;DHT22;11392;57.390;-2.468;2023-02-15T18:42:22;6.80;99.90
22450;DHT22;11392;57.390;-2.468;2023-02-15T18:44:54;6.80;99.90
22450;DHT22;11392;57.390;-2.468;2023-02-15T18:47:21;6.80;99.90
22450;DHT22;11392;57.390;-2.468;2023-02-15T18:49:49;6.90;99.90
22450;DHT22;11392;57.390;-2.468;2023-02-15T18:52:20;6.90;99.90
22450;DHT22;11392;57.390;-2.468;2023-02-15T18:54:57;6.90;99.90
22450;DHT22;11392;57.390;-2.468;2023-02-15T18:57:24;6.80;99.90
22450;DHT22;11392;57.390;-2.468;2023-02-15T18:59:52;6.80;99.90